Time;durP1;ratioP1;P1;durP2;ratioP2;P2;SDS_P1;SDS_P2;PMS_P1;PMS_P2;Temp;Humidity;BMP_temperature;BMP_pressure;BME280_temperature;BME280_humidity;BME280_pressure;Samples;Min_cycle;Max_cycle;Signal;HPM_P1;HPM_P2
2023/08/31 00:02:15;;;;;;;4.78;1.75;;;;;;;;;;5060311;28;20409;-84
2023/08/31 00:04:41;;;;;;;4.82;1.65;;;;;;;;;;5117060;27;20412;-83
2023/08/31 00:07:07;;;;;;;4.03;1.60;;;11.60;99.90;;;;;;5093435;28;20932;-84
2023/08/31 00:09:32;;;;;;;5.40;1.88;;;12.20;99.90;;;;;;5128626;27;20401;-83
2023/08/31 00:11:58;;;;;;;4.03;1.63;;;;;;;;;;5093516;28;20402;-83
2023/08/31 00:14:26;;;;;;;3.03;1.45;;;;;;;;;;5095874;28;20401;-81
2023/08/31 00:16:52;;;;;;;4.97;1.70;;;;;;;;;;5125226;27;20412;-83
2023/08/31 00:19:19;;;;;;;4.13;1.63;;;;;;;;;;5097600;28;20411;-84
2023/08/31 00:21:45;;;;;;;4.15;1.40;;;;;;;;;;5097409;28;20431;-83
2023/08/31 00:24:12;;;;;;;3.25;1.30;;;;;;;;;;5097355;28;20402;-83
2023/08/31 00:26:40;;;;;;;4.78;1.52;;;11.70;99.90;;;;;;5097279;28;20745;-84
2023/08/31 00:29:07;;;;;;;3.20;1.10;;;11.80;99.90;;;;;;5076316;28;20414;-83
2023/08/31 00:31:33;;;;;;;3.60;1.30;;;;;;;;;;5094355;28;20504;-83
2023/08/31 00:34:04;;;;;;;3.00;1.13;;;11.80;99.90;;;;;;5111202;28;20423;-83
2023/08/31 00:36:31;;;;;;;3.30;1.15;;;11.70;99.90;;;;;;5093837;28;20402;-83
2023/08/31 00:38:57;;;;;;;4.25;1.27;;;;;;;;;;5128644;27;20452;-83
2023/08/31 00:41:23;;;;;;;3.60;1.40;;;;;;;;;;5111029;27;20467;-83
2023/08/31 00:43:49;;;;;;;4.88;1.30;;;;;;;;;;5109654;27;20418;-81
2023/08/31 00:46:16;;;;;;;4.15;1.20;;;;;;;;;;5127448;27;20457;-83
2023/08/31 00:48:42;;;;;;;5.22;1.38;;;11.60;99.90;;;;;;5127774;27;20456;-83
2023/08/31 00:51:10;;;;;;;6.13;1.33;;;;;;;;;;5093442;28;20398;-84
2023/08/31 00:53:36;;;;;;;4.53;1.60;;;;;;;;;;5126597;27;20394;-83
2023/08/31 00:56:03;;;;;;;5.67;1.60;;;;;;;;;;5127521;27;20915;-83
2023/08/31 00:58:30;;;;;;;5.32;1.45;;;11.40;99.90;;;;;;5126293;27;20925;-82
2023/08/31 01:01:20;;;;;;;6.13;1.58;;;11.50;99.90;;;;;;5092518;28;20493;-83
2023/08/31 01:03:46;;;;;;;3.42;1.50;;;;;;;;;;5075998;28;20455;-84
2023/08/31 01:06:35;;;;;;;4.70;1.52;;;11.50;99.90;;;;;;5092611;28;20422;-84
2023/08/31 01:09:25;;;;;;;5.32;1.63;;;11.40;99.90;;;;;;5109487;28;20405;-82
2023/08/31 01:12:11;;;;;;;6.47;1.70;;;11.10;99.90;;;;;;5098257;28;20532;-83
2023/08/31 01:14:44;;;;;;;3.65;1.48;;;11.20;99.90;;;;;;5095779;28;20392;-80
2023/08/31 01:17:14;;;;;;;3.20;1.40;;;11.00;99.90;;;;;;5111054;28;20412;-81
2023/08/31 01:19:50;;;;;;;3.67;1.50;;;11.40;99.90;;;;;;5095681;28;20404;-82
2023/08/31 01:22:43;;;;;;;5.30;1.80;;;11.20;99.90;;;;;;5095772;28;20408;-83
2023/08/31 01:25:10;;;;;;;3.63;1.55;;;11.20;99.90;;;;;;5112608;28;20404;-82
2023/08/31 01:27:37;;;;;;;4.32;1.70;;;11.30;99.90;;;;;;5093807;28;20447;-82
2023/08/31 01:30:04;;;;;;;4.82;1.63;;;11.20;99.90;;;;;;5112367;28;20404;-82
2023/08/31 01:32:31;;;;;;;5.93;1.70;;;11.10;99.90;;;;;;5095527;28;20400;-82
2023/08/31 01:34:57;;;;;;;3.72;1.60;;;11.10;99.90;;;;;;5112626;28;20445;-82
2023/08/31 01:37:39;;;;;;;3.50;1.67;;;11.20;99.90;;;;;;5095399;28;20462;-82
2023/08/31 01:40:44;;;;;;;4.10;1.50;;;11.10;99.90;;;;;;5112098;28;20453;-83
2023/08/31 01:43:11;;;;;;;3.33;1.50;;;11.00;99.90;;;;;;5033762;28;20992;-82
2023/08/31 01:45:37;;;;;;;3.85;1.52;;;11.00;99.90;;;;;;5092578;28;20481;-83
2023/08/31 01:48:04;;;;;;;4.57;1.67;;;11.10;99.90;;;;;;5075552;28;20414;-83
2023/08/31 01:50:30;;;;;;;3.30;1.38;;;;;;;;;;5092905;28;20401;-81
2023/08/31 01:52:56;;;;;;;5.13;1.40;;;;;;;;;;5091723;28;20409;-83
2023/08/31 01:55:23;;;;;;;5.63;1.90;;;;;;;;;;5075465;28;20421;-83
2023/08/31 01:57:49;;;;;;;3.53;1.42;;;;;;;;;;5086138;28;20466;-83
2023/08/31 02:00:17;;;;;;;5.47;1.55;;;11.10;99.90;;;;;;5094375;28;20785;-83
2023/08/31 02:02:43;;;;;;;4.07;1.60;;;10.90;99.90;;;;;;5112131;28;20400;-83
2023/08/31 02:05:09;;;;;;;4.00;1.50;;;;;;;;;;5112351;28;20403;-83
2023/08/31 02:07:36;;;;;;;5.80;2.00;;;10.80;99.90;;;;;;5078156;28;20416;-83
2023/08/31 02:10:02;;;;;;;4.40;1.52;;;;;;;;;;5095184;28;20413;-83
2023/08/31 02:12:28;;;;;;;6.13;1.70;;;10.50;99.90;;;;;;5125639;27;20412;-83
2023/08/31 02:14:54;;;;;;;5.60;1.70;;;;;;;;;;5091188;28;20405;-83
2023/08/31 02:17:19;;;;;;;4.97;1.70;;;10.80;99.90;;;;;;5125226;27;20440;-83
2023/08/31 02:19:45;;;;;;;4.30;2.00;;;;;;;;;;5091403;28;20448;-83
2023/08/31 02:22:11;;;;;;;3.92;1.90;;;;;;;;;;5108450;28;20409;-84
2023/08/31 02:24:37;;;;;;;3.25;1.40;;;10.90;99.90;;;;;;5139066;27;20407;-83
2023/08/31 02:27:03;;;;;;;4.43;1.60;;;;;;;;;;5110810;28;20776;-82
2023/08/31 02:29:29;;;;;;;4.85;1.75;;;;;;;;;;5094890;28;20497;-82
2023/08/31 02:31:55;;;;;;;3.17;1.50;;;10.70;99.90;;;;;;5122369;28;20385;-82
2023/08/31 02:34:21;;;;;;;4.10;1.60;;;;;;;;;;5114926;28;20472;-83
2023/08/31 02:36:47;;;;;;;4.70;1.70;;;;;;;;;;5121963;28;20396;-84
2023/08/31 02:39:13;;;;;;;4.30;1.40;;;;;;;;;;5078042;28;20478;-82
2023/08/31 02:41:40;;;;;;;4.15;1.50;;;;;;;;;;5110969;28;20821;-84
2023/08/31 02:44:06;;;;;;;3.25;1.50;;;;;;;;;;5094905;28;20436;-83
2023/08/31 02:46:32;;;;;;;4.28;1.60;;;;;;;;;;5094977;28;20545;-84
2023/08/31 02:48:57;;;;;;;4.57;1.52;;;10.60;99.90;;;;;;5114231;28;20388;-82
2023/08/31 02:51:23;;;;;;;4.00;1.40;;;;;;;;;;5117349;28;20437;-82
2023/08/31 02:53:50;;;;;;;3.65;1.60;;;;;;;;;;5114277;28;20426;-81
2023/08/31 02:56:15;;;;;;;2.93;1.40;;;10.70;99.90;;;;;;5094972;28;20488;-82
2023/08/31 02:58:41;;;;;;;3.63;1.70;;;10.60;99.90;;;;;;5094791;28;20407;-83
2023/08/31 03:01:11;;;;;;;5.07;1.37;;;10.70;99.90;;;;;;5094519;28;20771;-83
2023/08/31 03:03:38;;;;;;;4.30;1.50;;;10.30;99.90;;;;;;5111482;28;20852;-83
2023/08/31 03:06:04;;;;;;;4.93;1.27;;;;;;;;;;5111058;28;20403;-81
2023/08/31 03:08:30;;;;;;;3.20;1.50;;;;;;;;;;5111577;28;20416;-83
2023/08/31 03:10:57;;;;;;;4.45;1.63;;;10.70;99.90;;;;;;5091907;28;20424;-83
2023/08/31 03:13:23;;;;;;;3.83;1.50;;;;;;;;;;5073873;28;20523;-83
2023/08/31 03:15:49;;;;;;;5.22;1.83;;;10.70;99.90;;;;;;5090808;28;20402;-84
2023/08/31 03:18:15;;;;;;;4.80;1.67;;;10.80;99.90;;;;;;5111019;28;20393;-83
2023/08/31 03:20:41;;;;;;;4.93;1.80;;;;;;;;;;5077993;28;20731;-83
2023/08/31 03:23:07;;;;;;;4.20;1.50;;;;;;;;;;5105722;28;20481;-84
2023/08/31 03:25:33;;;;;;;3.13;1.73;;;10.90;99.90;;;;;;5114978;28;20441;-83
2023/08/31 03:27:59;;;;;;;4.43;1.70;;;;;;;;;;5098365;28;20415;-83
2023/08/31 03:30:24;;;;;;;4.07;1.80;;;10.90;99.90;;;;;;5097967;28;20396;-77
2023/08/31 03:32:51;;;;;;;7.83;1.90;;;;;;;;;;5080631;28;20974;-78
2023/08/31 03:35:17;;;;;;;4.20;1.80;;;;;;;;;;5093566;28;20421;-77
2023/08/31 03:37:43;;;;;;;6.05;1.95;;;;;;;;;;5127929;27;20935;-78
2023/08/31 03:40:09;;;;;;;4.72;2.10;;;;;;;;;;5111375;27;20442;-78
2023/08/31 03:42:35;;;;;;;5.05;2.25;;;11.00;99.90;;;;;;5127847;27;20405;-77
2023/08/31 03:45:03;;;;;;;5.15;2.10;;;;;;;;;;5111186;27;20543;-78
2023/08/31 03:47:29;;;;;;;6.95;2.47;;;;;;;;;;5111151;27;20505;-77
2023/08/31 03:49:55;;;;;;;5.27;2.67;;;10.90;99.90;;;;;;5067924;28;20811;-77
2023/08/31 03:52:21;;;;;;;5.63;2.93;;;;;;;;;;5110741;28;20406;-78
2023/08/31 03:54:47;;;;;;;6.70;3.30;;;;;;;;;;5076890;28;20999;-77
2023/08/31 03:57:13;;;;;;;8.20;3.50;;;;;;;;;;5094057;28;20422;-78
2023/08/31 03:59:39;;;;;;;7.60;4.13;;;10.80;99.90;;;;;;5110530;27;20405;-78
2023/08/31 04:02:05;;;;;;;7.43;4.25;;;;;;;;;;5059916;28;20972;-78
2023/08/31 04:04:31;;;;;;;8.40;4.40;;;11.20;99.90;;;;;;5140418;27;20420;-78
2023/08/31 04:06:57;;;;;;;9.85;4.60;;;;;;;;;;5096924;28;20443;-78
2023/08/31 04:09:23;;;;;;;7.57;5.00;;;;;;;;;;5113989;28;20400;-78
2023/08/31 04:11:49;;;;;;;8.95;5.55;;;;;;;;;;5097373;28;20392;-78
2023/08/31 04:14:15;;;;;;;8.07;5.25;;;;;;;;;;5113887;28;20393;-78
2023/08/31 04:16:41;;;;;;;9.60;5.70;;;;;;;;;;5084189;28;20418;-78
2023/08/31 04:19:07;;;;;;;10.30;6.00;;;;;;;;;;5093281;28;20408;-78
2023/08/31 04:21:33;;;;;;;11.27;6.60;;;11.10;99.90;;;;;;5093464;28;20402;-78
2023/08/31 04:24:00;;;;;;;9.38;6.53;;;;;;;;;;5092907;28;20402;-78
2023/08/31 04:26:26;;;;;;;11.10;6.68;;;;;;;;;;5110099;28;20955;-78
2023/08/31 04:28:52;;;;;;;10.43;6.97;;;;;;;;;;5091947;28;20390;-78
2023/08/31 04:31:18;;;;;;;11.57;7.07;;;;;;;;;;5110502;28;20416;-78
2023/08/31 04:33:44;;;;;;;11.30;7.28;;;;;;;;;;5096696;28;20388;-84
2023/08/31 04:36:10;;;;;;;16.08;8.13;;;;;;;;;;5084635;28;20453;-84
2023/08/31 04:38:37;;;;;;;15.68;7.97;;;11.00;99.90;;;;;;5114294;28;20415;-85
2023/08/31 04:41:03;;;;;;;14.00;7.93;;;11.10;99.90;;;;;;5114992;28;20435;-84
2023/08/31 04:43:30;;;;;;;14.18;7.80;;;;;;;;;;5078545;27;20893;-83
2023/08/31 04:45:56;;;;;;;14.70;8.50;;;;;;;;;;5123416;27;20493;-84
2023/08/31 04:48:22;;;;;;;13.02;8.27;;;;;;;;;;5115425;28;20453;-84
2023/08/31 04:50:48;;;;;;;14.88;8.45;;;;;;;;;;5113724;28;20392;-84
2023/08/31 04:53:14;;;;;;;17.00;8.73;;;;;;;;;;5113677;28;20808;-84
2023/08/31 04:55:40;;;;;;;14.68;8.45;;;11.10;99.90;;;;;;5080417;28;20713;-84
2023/08/31 04:58:06;;;;;;;17.73;8.88;;;;;;;;;;5096590;28;20404;-83
2023/08/31 05:00:32;;;;;;;15.38;8.10;;;;;;;;;;5077336;28;20409;-84
2023/08/31 05:02:58;;;;;;;15.50;8.60;;;;;;;;;;5078061;28;20418;-83
2023/08/31 05:05:24;;;;;;;13.18;8.50;;;;;;;;;;5127835;27;20413;-84
2023/08/31 05:07:50;;;;;;;13.88;8.20;;;;;;;;;;5126657;27;20886;-84
2023/08/31 05:10:16;;;;;;;12.73;7.95;;;;;;;;;;5110041;28;20416;-84
2023/08/31 05:12:42;;;;;;;16.13;7.88;;;11.00;99.90;;;;;;5110293;28;20398;-83
2023/08/31 05:15:09;;;;;;;13.67;8.00;;;;;;;;;;5092459;28;20447;-83
2023/08/31 05:17:35;;;;;;;14.60;7.83;;;11.20;99.90;;;;;;5095524;28;20651;-84
2023/08/31 05:20:03;;;;;;;12.87;7.23;;;;;;;;;;5113527;28;20428;-79
2023/08/31 05:22:29;;;;;;;13.40;6.90;;;11.00;99.90;;;;;;5079794;28;20820;-78
2023/08/31 05:24:55;;;;;;;11.45;7.18;;;;;;;;;;5112875;28;20415;-78
2023/08/31 05:27:21;;;;;;;13.80;6.50;;;11.00;99.90;;;;;;5112832;28;20424;-77
2023/08/31 05:29:49;;;;;;;13.43;6.45;;;;;;;;;;5078794;28;20396;-77
2023/08/31 05:32:15;;;;;;;15.43;6.40;;;;;;;;;;5107622;27;20832;-77
2023/08/31 05:34:41;;;;;;;12.75;6.35;;;;;;;;;;5112833;28;20473;-77
2023/08/31 05:37:07;;;;;;;9.65;5.68;;;;;;;;;;5095498;28;20399;-78
2023/08/31 05:39:34;;;;;;;11.53;5.10;;;;;;;;;;5127595;28;20727;-77
2023/08/31 05:41:59;;;;;;;11.40;5.10;;;11.60;99.90;;;;;;5135832;28;20402;-83
2023/08/31 05:44:25;;;;;;;12.77;5.18;;;;;;;;;;5151874;27;20817;-85
2023/08/31 05:46:51;;;;;;;10.25;5.07;;;11.60;99.90;;;;;;5102114;28;20430;-84
2023/08/31 05:49:17;;;;;;;9.57;4.60;;;;;;;;;;5075937;28;20762;-85
2023/08/31 05:51:43;;;;;;;7.47;3.90;;;;;;;;;;5130265;27;20501;-84
2023/08/31 05:54:11;;;;;;;7.85;4.00;;;;;;;;;;5141549;27;20435;-83
2023/08/31 05:56:41;;;;;;;7.35;3.60;;;;;;;;;;5081747;28;20485;-82
2023/08/31 05:59:07;;;;;;;8.65;3.53;;;11.90;99.90;;;;;;5137707;27;20512;-84
2023/08/31 06:01:33;;;;;;;7.32;3.20;;;;;;;;;;5093359;27;20546;-82
2023/08/31 06:03:59;;;;;;;6.28;3.22;;;;;;;;;;5078350;28;20430;-83
2023/08/31 06:06:25;;;;;;;6.53;3.40;;;12.30;99.90;;;;;;5092345;28;20430;-84
2023/08/31 06:08:53;;;;;;;6.88;3.38;;;;;;;;;;5092100;28;20405;-84
2023/08/31 06:11:19;;;;;;;8.35;3.00;;;;;;;;;;5092655;28;20398;-83
2023/08/31 06:13:45;;;;;;;7.27;2.70;;;12.50;99.90;;;;;;5092068;28;20753;-82
2023/08/31 06:16:11;;;;;;;6.83;2.53;;;12.60;99.90;;;;;;5090161;28;20420;-83
2023/08/31 06:18:37;;;;;;;8.90;2.60;;;12.90;99.90;;;;;;5125308;27;20903;-82
2023/08/31 06:21:03;;;;;;;6.65;2.72;;;;;;;;;;5095094;28;20404;-83
2023/08/31 06:23:29;;;;;;;7.55;2.53;;;12.80;99.90;;;;;;5111624;28;20966;-84
2023/08/31 06:25:55;;;;;;;5.43;2.17;;;12.80;99.90;;;;;;5111478;28;20488;-84
2023/08/31 06:28:20;;;;;;;5.65;2.20;;;13.20;99.90;;;;;;5128864;27;20400;-83
2023/08/31 06:30:47;;;;;;;7.80;2.40;;;13.20;99.90;;;;;;5092875;28;20408;-83
2023/08/31 06:33:14;;;;;;;7.25;2.60;;;13.00;99.90;;;;;;5074188;28;20433;-83
2023/08/31 06:35:40;;;;;;;3.97;1.73;;;13.40;99.90;;;;;;5124976;27;20394;-82
2023/08/31 06:38:06;;;;;;;8.73;2.70;;;13.50;99.90;;;;;;5073923;28;20413;-82
2023/08/31 06:40:31;;;;;;;4.13;1.90;;;13.50;99.90;;;;;;5090862;28;20410;-83
2023/08/31 06:42:57;;;;;;;6.30;2.20;;;13.40;99.90;;;;;;5074503;28;20398;-84
2023/08/31 06:45:24;;;;;;;3.83;1.80;;;13.50;99.90;;;;;;5073882;28;20418;-82
2023/08/31 06:47:50;;;;;;;4.18;1.77;;;13.90;99.90;;;;;;5057511;28;20913;-83
2023/08/31 06:50:16;;;;;;;7.28;1.70;;;14.00;99.90;;;;;;5090258;28;20412;-84
2023/08/31 06:52:42;;;;;;;6.22;2.08;;;13.90;99.90;;;;;;5093935;28;20396;-84
2023/08/31 06:55:10;;;;;;;5.00;1.63;;;;;;;;;;5111638;28;20479;-84
2023/08/31 06:57:37;;;;;;;4.20;1.42;;;12.90;99.90;;;;;;5094618;28;20448;-83
2023/08/31 07:00:03;;;;;;;5.70;1.50;;;;;;;;;;5113396;28;20411;-84
2023/08/31 07:02:29;;;;;;;3.83;1.52;;;14.40;99.90;;;;;;5085470;28;20493;-84
2023/08/31 07:04:55;;;;;;;3.10;1.40;;;14.50;99.90;;;;;;5100929;28;20492;-84
2023/08/31 07:07:21;;;;;;;8.90;1.80;;;14.60;99.90;;;;;;5112680;28;20444;-83
2023/08/31 07:09:48;;;;;;;5.07;1.50;;;14.70;99.90;;;;;;5095608;28;20403;-84
2023/08/31 07:12:14;;;;;;;5.93;1.63;;;14.90;99.90;;;;;;5091059;28;20438;-83
2023/08/31 07:14:40;;;;;;;5.28;1.80;;;15.00;99.90;;;;;;5112580;28;20410;-82
2023/08/31 07:17:06;;;;;;;4.55;1.75;;;15.00;99.90;;;;;;5088940;28;20424;-84
2023/08/31 07:19:31;;;;;;;4.57;1.33;;;15.30;99.90;;;;;;5074566;28;21120;-84
2023/08/31 07:21:57;;;;;;;5.03;1.30;;;15.30;99.90;;;;;;5074047;28;20772;-85
2023/08/31 07:24:24;;;;;;;3.60;1.40;;;15.60;99.90;;;;;;5107882;28;20462;-85
2023/08/31 07:26:50;;;;;;;4.22;1.00;;;15.50;99.90;;;;;;5110830;28;20416;-85
2023/08/31 07:29:16;;;;;;;5.00;1.17;;;15.70;99.90;;;;;;5111107;28;20406;-85
2023/08/31 07:31:42;;;;;;;3.20;1.00;;;15.60;99.90;;;;;;5099039;28;20946;-85
2023/08/31 07:34:07;;;;;;;4.78;1.33;;;15.80;99.90;;;;;;5095347;28;20762;-84
2023/08/31 07:36:34;;;;;;;4.63;1.38;;;15.90;99.90;;;;;;5090823;28;20766;-84
2023/08/31 07:38:59;;;;;;;2.42;1.00;;;16.10;99.90;;;;;;5090685;28;20490;-84
2023/08/31 07:41:25;;;;;;;5.53;1.50;;;15.90;99.90;;;;;;5073739;28;20917;-84
2023/08/31 07:43:51;;;;;;;2.37;1.10;;;15.90;99.90;;;;;;5124457;28;20586;-83
2023/08/31 07:46:18;;;;;;;4.17;1.27;;;16.10;99.90;;;;;;5079708;28;20430;-84
2023/08/31 07:48:44;;;;;;;5.57;1.33;;;16.20;99.90;;;;;;5101341;28;20421;-83
2023/08/31 07:51:09;;;;;;;5.82;1.10;;;16.60;99.90;;;;;;5087670;28;20414;-84
2023/08/31 07:53:35;;;;;;;2.85;1.00;;;16.40;99.90;;;;;;5090246;28;20477;-84
2023/08/31 07:56:01;;;;;;;4.53;0.93;;;16.50;99.90;;;;;;5073746;28;20451;-84
2023/08/31 07:58:27;;;;;;;3.40;1.43;;;16.90;99.90;;;;;;5073554;28;20451;-84
2023/08/31 08:00:54;;;;;;;3.80;1.27;;;16.70;99.90;;;;;;5082014;28;20424;-83
2023/08/31 08:03:20;;;;;;;3.42;1.10;;;16.80;99.90;;;;;;5077379;28;20409;-83
2023/08/31 08:05:46;;;;;;;7.03;1.27;;;17.00;99.90;;;;;;5107583;28;20412;-83
2023/08/31 08:08:12;;;;;;;3.38;1.20;;;17.00;99.90;;;;;;5097321;28;20420;-84
2023/08/31 08:10:38;;;;;;;3.90;0.98;;;17.30;99.90;;;;;;5114189;28;20952;-83
2023/08/31 08:13:04;;;;;;;3.92;0.90;;;17.30;99.90;;;;;;5097308;28;20392;-83
2023/08/31 08:15:30;;;;;;;2.93;0.90;;;17.30;99.90;;;;;;5131952;27;20492;-84
2023/08/31 08:17:57;;;;;;;5.40;1.20;;;17.50;99.90;;;;;;5097464;28;20426;-84
2023/08/31 08:20:23;;;;;;;4.28;1.05;;;17.30;99.90;;;;;;5093643;28;20405;-84
2023/08/31 08:22:52;;;;;;;6.75;1.25;;;17.50;99.90;;;;;;5110274;28;20469;-84
2023/08/31 08:25:19;;;;;;;3.70;1.08;;;17.50;99.90;;;;;;5092869;28;20537;-83
2023/08/31 08:27:45;;;;;;;2.83;0.90;;;17.60;99.90;;;;;;5127304;27;20437;-84
2023/08/31 08:30:11;;;;;;;2.80;0.88;;;17.90;99.90;;;;;;5076305;28;21018;-84
2023/08/31 08:32:37;;;;;;;4.10;0.98;;;18.30;99.90;;;;;;5076574;28;20390;-83
2023/08/31 08:35:03;;;;;;;2.90;0.80;;;18.20;99.90;;;;;;5102509;28;20419;-83
2023/08/31 08:37:29;;;;;;;3.42;0.90;;;18.40;99.90;;;;;;5113524;28;20412;-84
2023/08/31 08:39:55;;;;;;;3.25;1.08;;;18.20;99.90;;;;;;5113820;28;20396;-83
2023/08/31 08:42:23;;;;;;;2.40;0.70;;;18.20;99.90;;;;;;5113734;28;20465;-84
2023/08/31 08:44:50;;;;;;;2.20;0.80;;;18.40;99.90;;;;;;5108963;28;20420;-84
2023/08/31 08:47:17;;;;;;;3.25;0.90;;;18.20;99.90;;;;;;5116883;28;20434;-82
2023/08/31 08:49:43;;;;;;;3.25;0.90;;;17.90;99.90;;;;;;5120427;28;20400;-82
2023/08/31 08:52:09;;;;;;;2.72;0.80;;;17.50;99.90;;;;;;5098091;28;20450;-83
2023/08/31 08:54:35;;;;;;;2.60;0.95;;;17.60;99.90;;;;;;5114253;28;20404;-83
2023/08/31 08:57:03;;;;;;;3.20;0.90;;;17.20;99.90;;;;;;5080077;28;20499;-83
2023/08/31 08:59:30;;;;;;;9.88;1.30;;;17.00;99.90;;;;;;5096064;28;20516;-80
2023/08/31 09:01:56;;;;;;;2.97;0.80;;;16.20;99.90;;;;;;5104698;28;20447;-82
2023/08/31 09:04:22;;;;;;;2.25;0.80;;;15.30;99.90;;;;;;5099691;28;20434;-84
2023/08/31 09:06:50;;;;;;;3.20;1.08;;;14.40;99.90;;;;;;5120126;27;20805;-83
2023/08/31 09:09:16;;;;;;;3.27;0.97;;;14.20;99.90;;;;;;5116765;28;20404;-83
2023/08/31 09:11:43;;;;;;;2.97;0.93;;;14.40;99.90;;;;;;5096266;28;20399;-83
2023/08/31 09:14:16;;;;;;;4.50;0.90;;;14.60;99.90;;;;;;5095960;28;20427;-83
2023/08/31 09:16:47;;;;;;;2.03;0.80;;;14.70;99.90;;;;;;5127945;27;20934;-83
2023/08/31 09:19:28;;;;;;;2.85;0.95;;;14.90;99.90;;;;;;5113419;28;20733;-83
2023/08/31 09:21:56;;;;;;;3.72;1.20;;;15.00;99.90;;;;;;5096133;28;20457;-83
2023/08/31 09:24:23;;;;;;;4.85;1.33;;;15.30;99.90;;;;;;5113105;28;20419;-83
2023/08/31 09:26:56;;;;;;;5.53;1.63;;;15.70;99.90;;;;;;5095867;28;20426;-82
2023/08/31 09:29:22;;;;;;;4.05;1.35;;;16.30;99.90;;;;;;5147016;27;21291;-84
2023/08/31 09:31:49;;;;;;;6.20;1.50;;;16.20;99.90;;;;;;5075471;28;20426;-84
2023/08/31 09:34:16;;;;;;;3.80;1.20;;;17.00;99.90;;;;;;5092764;28;20963;-84
2023/08/31 09:36:42;;;;;;;4.35;1.25;;;16.70;99.90;;;;;;5075475;28;20398;-85
2023/08/31 09:39:09;;;;;;;4.68;1.20;;;17.40;99.90;;;;;;5092316;28;20455;-84
2023/08/31 09:41:35;;;;;;;3.13;1.35;;;17.50;99.90;;;;;;5109035;28;20761;-85
2023/08/31 09:44:18;;;;;;;3.30;1.20;;;17.60;99.90;;;;;;5125989;27;20487;-84
2023/08/31 09:46:45;;;;;;;2.72;1.10;;;18.10;99.90;;;;;;5075192;28;20779;-85
2023/08/31 09:49:15;;;;;;;2.25;0.93;;;16.30;99.90;;;;;;5092276;28;20745;-84
2023/08/31 09:51:45;;;;;;;2.90;1.20;;;18.10;99.90;;;;;;5058627;28;20527;-85
2023/08/31 09:54:16;;;;;;;2.85;1.00;;;17.60;99.90;;;;;;5075295;28;20822;-84
2023/08/31 09:56:44;;;;;;;2.67;0.90;;;17.70;99.90;;;;;;5108363;27;20485;-76
2023/08/31 09:59:11;;;;;;;1.40;0.70;;;17.40;99.90;;;;;;5099016;27;20416;-77
2023/08/31 10:01:37;;;;;;;7.07;1.50;;;17.70;99.90;;;;;;5111787;28;20407;-76
2023/08/31 10:04:05;;;;;;;3.10;1.08;;;18.10;99.90;;;;;;5112014;28;20740;-77
2023/08/31 10:06:31;;;;;;;2.25;0.82;;;18.20;99.90;;;;;;5105284;28;20431;-77
2023/08/31 10:08:58;;;;;;;3.33;1.10;;;18.20;99.90;;;;;;5110714;28;20492;-77
2023/08/31 10:11:28;;;;;;;2.63;0.90;;;18.10;99.90;;;;;;5074187;28;20414;-78
2023/08/31 10:13:55;;;;;;;3.47;0.80;;;17.90;99.90;;;;;;5111518;28;20406;-78
2023/08/31 10:16:21;;;;;;;3.83;1.30;;;17.90;99.90;;;;;;5109336;28;20473;-78
2023/08/31 10:18:48;;;;;;;3.40;1.00;;;17.80;99.90;;;;;;5111291;28;20458;-78
2023/08/31 10:21:18;;;;;;;3.53;1.30;;;17.90;99.90;;;;;;5094431;28;20400;-78
2023/08/31 10:23:45;;;;;;;4.07;0.90;;;17.90;99.90;;;;;;5110174;28;20396;-77
2023/08/31 10:26:10;;;;;;;2.33;0.80;;;17.80;99.90;;;;;;5093487;28;20393;-77
2023/08/31 10:28:42;;;;;;;1.65;0.70;;;17.70;99.90;;;;;;5110919;28;20408;-77
2023/08/31 10:31:09;;;;;;;1.73;0.70;;;17.90;99.90;;;;;;5094302;28;20914;-78
2023/08/31 10:33:40;;;;;;;1.25;0.70;;;18.20;99.90;;;;;;5094475;28;20741;-77
2023/08/31 10:36:19;;;;;;;2.15;0.70;;;18.00;99.90;;;;;;5094499;28;20472;-77
2023/08/31 10:39:02;;;;;;;3.25;0.88;;;18.10;99.90;;;;;;5093019;28;20532;-78
2023/08/31 10:41:37;;;;;;;3.13;0.82;;;18.40;99.90;;;;;;5093845;28;20408;-78
2023/08/31 10:44:16;;;;;;;4.35;1.02;;;18.80;99.90;;;;;;5111278;28;20497;-77
2023/08/31 10:46:43;;;;;;;3.75;1.10;;;18.50;99.90;;;;;;5130077;27;20431;-77
2023/08/31 10:49:09;;;;;;;3.72;1.10;;;18.40;99.90;;;;;;5077156;28;20876;-77
2023/08/31 10:51:36;;;;;;;3.20;1.00;;;18.40;99.90;;;;;;5110724;28;20399;-77
2023/08/31 10:54:13;;;;;;;2.85;0.90;;;18.10;99.90;;;;;;5109367;28;20744;-77
2023/08/31 10:56:57;;;;;;;3.50;1.00;;;18.10;99.90;;;;;;5110737;28;20428;-77
2023/08/31 10:59:24;;;;;;;2.75;1.00;;;18.30;99.90;;;;;;5093735;28;20419;-76
2023/08/31 11:02:04;;;;;;;2.00;0.90;;;18.50;99.90;;;;;;5093760;28;20922;-76
2023/08/31 11:04:30;;;;;;;2.97;1.10;;;18.50;99.90;;;;;;5093682;28;20914;-76
2023/08/31 11:07:29;;;;;;;2.78;1.00;;;18.30;99.90;;;;;;5110724;28;20416;-76
2023/08/31 11:10:06;;;;;;;3.55;1.38;;;18.10;99.90;;;;;;5060980;28;20495;-77
2023/08/31 11:12:32;;;;;;;4.00;1.13;;;18.10;99.90;;;;;;5094016;28;20396;-77
2023/08/31 11:14:58;;;;;;;4.53;1.10;;;18.00;99.90;;;;;;5093782;28;20535;-77
2023/08/31 11:17:24;;;;;;;4.43;1.30;;;18.20;99.90;;;;;;5094067;28;20419;-76
2023/08/31 11:19:50;;;;;;;4.57;1.10;;;18.40;99.90;;;;;;5110710;28;20895;-75
2023/08/31 11:22:16;;;;;;;3.80;1.20;;;18.30;99.90;;;;;;5097376;28;20425;-77
2023/08/31 11:24:42;;;;;;;3.50;0.90;;;18.20;99.90;;;;;;5090351;28;20405;-77
2023/08/31 11:27:09;;;;;;;3.97;1.30;;;18.20;99.90;;;;;;5073305;28;20417;-77
2023/08/31 11:29:43;;;;;;;2.30;1.10;;;18.20;99.90;;;;;;5089960;28;20402;-77
2023/08/31 11:32:09;;;;;;;2.33;1.00;;;18.20;99.90;;;;;;5073413;28;20409;-77
2023/08/31 11:34:36;;;;;;;3.55;0.98;;;18.60;99.90;;;;;;5090796;28;20394;-77
2023/08/31 11:37:02;;;;;;;7.40;1.40;;;18.60;99.90;;;;;;5090200;28;20440;-77
2023/08/31 11:39:28;;;;;;;3.60;1.10;;;19.20;99.90;;;;;;5127254;27;20405;-76
2023/08/31 11:41:54;;;;;;;3.80;1.47;;;19.30;99.90;;;;;;5093899;28;20506;-76
2023/08/31 11:44:21;;;;;;;3.33;1.10;;;19.60;99.90;;;;;;5077046;28;20406;-77
2023/08/31 11:46:50;;;;;;;3.85;1.20;;;19.40;99.90;;;;;;5132108;27;20418;-77
2023/08/31 11:49:19;;;;;;;4.22;1.38;;;19.60;99.90;;;;;;5110431;28;20612;-75
2023/08/31 11:51:46;;;;;;;3.78;1.10;;;20.00;99.90;;;;;;5109728;28;20400;-76
2023/08/31 11:54:12;;;;;;;4.05;1.20;;;20.30;99.90;;;;;;5097390;28;20388;-76
2023/08/31 11:56:42;;;;;;;5.30;1.20;;;20.40;99.90;;;;;;5080538;28;20400;-76
2023/08/31 11:59:12;;;;;;;2.53;1.00;;;20.40;99.90;;;;;;5114041;28;20499;-76
2023/08/31 12:01:39;;;;;;;3.47;1.30;;;20.50;99.90;;;;;;5115575;28;20408;-76
2023/08/31 12:04:22;;;;;;;3.22;1.15;;;20.30;99.90;;;;;;5112949;28;20462;-76
2023/08/31 12:06:50;;;;;;;3.80;1.30;;;19.70;99.90;;;;;;5096281;28;20414;-76
2023/08/31 12:09:16;;;;;;;3.28;0.98;;;19.60;99.90;;;;;;5098540;28;20489;-77
2023/08/31 12:11:42;;;;;;;3.47;1.00;;;19.20;99.90;;;;;;5095683;28;20393;-76
2023/08/31 12:14:21;;;;;;;2.60;0.90;;;18.90;99.90;;;;;;5093787;28;20404;-76
2023/08/31 12:16:47;;;;;;;2.95;1.00;;;18.80;99.90;;;;;;5122309;27;20749;-76
2023/08/31 12:19:12;;;;;;;2.42;1.33;;;18.80;99.90;;;;;;5079817;28;20396;-77
2023/08/31 12:21:39;;;;;;;3.67;1.27;;;19.00;99.90;;;;;;5113607;28;20396;-76
2023/08/31 12:24:06;;;;;;;3.03;1.10;;;18.90;99.90;;;;;;5080157;28;20441;-76
2023/08/31 12:26:31;;;;;;;3.10;1.35;;;18.40;99.90;;;;;;5096877;28;20484;-76
2023/08/31 12:28:57;;;;;;;2.70;1.15;;;17.90;99.90;;;;;;5096293;28;20900;-77
2023/08/31 12:31:24;;;;;;;3.50;1.20;;;18.10;99.90;;;;;;5095295;28;20412;-77
2023/08/31 12:33:49;;;;;;;4.03;1.30;;;18.40;99.90;;;;;;5113252;28;20407;-77
2023/08/31 12:36:15;;;;;;;3.57;1.20;;;18.60;99.90;;;;;;5096677;28;20393;-77
2023/08/31 12:38:41;;;;;;;4.53;1.30;;;18.70;99.90;;;;;;5092508;28;20421;-76
2023/08/31 12:41:07;;;;;;;3.55;1.38;;;18.80;99.90;;;;;;5098437;28;20526;-76
2023/08/31 12:43:34;;;;;;;3.03;0.98;;;18.80;99.90;;;;;;5113476;28;20428;-77
2023/08/31 12:46:00;;;;;;;3.53;1.30;;;18.70;99.90;;;;;;5113568;28;20796;-77
2023/08/31 12:48:26;;;;;;;4.05;1.27;;;18.70;99.90;;;;;;5111796;28;20518;-76
2023/08/31 12:50:53;;;;;;;3.47;1.20;;;18.80;99.90;;;;;;5112536;28;20480;-76
2023/08/31 12:53:22;;;;;;;4.47;1.42;;;18.60;99.90;;;;;;5079829;28;20399;-77
2023/08/31 12:55:47;;;;;;;4.32;1.40;;;18.30;99.90;;;;;;5148350;27;20483;-77
2023/08/31 12:58:13;;;;;;;5.50;1.50;;;18.20;99.90;;;;;;5148467;27;20984;-76
2023/08/31 13:00:39;;;;;;;4.27;1.50;;;17.80;99.90;;;;;;5096560;28;20408;-76
2023/08/31 13:03:06;;;;;;;3.50;1.10;;;17.90;99.90;;;;;;5068489;28;20775;-76
2023/08/31 13:05:32;;;;;;;2.75;1.00;;;17.70;99.90;;;;;;5076382;28;20489;-76
2023/08/31 13:07:58;;;;;;;3.37;1.20;;;17.80;99.90;;;;;;5093201;28;20509;-77
2023/08/31 13:10:24;;;;;;;2.60;1.10;;;17.70;99.90;;;;;;5110562;28;20421;-77
2023/08/31 13:12:49;;;;;;;2.17;1.00;;;17.60;99.90;;;;;;5109907;28;20390;-76
2023/08/31 13:15:15;;;;;;;3.58;1.10;;;17.40;99.90;;;;;;5058557;28;20479;-76
2023/08/31 13:17:41;;;;;;;2.95;1.40;;;17.90;99.90;;;;;;5092892;28;20485;-76
2023/08/31 13:20:08;;;;;;;2.50;1.23;;;17.70;99.90;;;;;;5109774;28;20435;-76